Time,TemperatureF,DewpointF,PressureIn,WindDirection,WindDirectionDegrees,WindSpeedMPH,WindSpeedGustMPH,Humidity,HourlyPrecipIn,Conditions,Clouds,dailyrainin,SoftwareType,DateUTC
2013-07-16 00:00:00,52.0,49.0,-100.00,SSW,212,1.0,-999.0,88,0.00,,,-99.99,,2013-07-16 07:00:00,
2013-07-16 00:32:00,52.0,49.0,-100.00,SSW,212,1.0,-999.0,88,0.00,,,-99.99,,2013-07-16 07:32:00,
2013-07-16 00:52:00,52.0,49.0,-100.00,SSW,212,1.0,-999.0,88,0.00,,,-99.99,,2013-07-16 07:52:00,
2013-07-16 01:00:00,52.0,48.0,-100.00,SSW,197,2.0,-999.0,89,0.00,,,-99.99,,2013-07-16 08:00:00,
2013-07-16 01:32:00,52.0,48.0,-100.00,SSW,197,2.0,-999.0,89,0.00,,,-99.99,,2013-07-16 08:32:00,
2013-07-16 01:52:00,52.0,48.0,-100.00,SSW,197,2.0,-999.0,89,0.00,,,-99.99,,2013-07-16 08:52:00,
2013-07-16 02:00:00,52.0,49.0,-100.00,SSW,198,1.0,-999.0,88,0.00,,,-99.99,,2013-07-16 09:00:00,
2013-07-16 02:22:00,52.0,49.0,-100.00,SSW,198,1.0,-999.0,88,0.00,,,-99.99,,2013-07-16 09:22:00,
2013-07-16 02:32:00,52.0,49.0,-100.00,SSW,198,1.0,-999.0,88,0.00,,,-99.99,,2013-07-16 09:32:00,
2013-07-16 02:52:00,52.0,49.0,-100.00,SSW,198,1.0,-999.0,88,0.00,,,-99.99,,2013-07-16 09:52:00,
2013-07-16 03:00:00,52.0,49.0,-100.00,SW,233,0.0,-999.0,88,0.00,,,-99.99,,2013-07-16 10:00:00,
2013-07-16 03:32:00,52.0,49.0,-100.00,SW,233,0.0,-999.0,88,0.00,,,-99.99,,2013-07-16 10:32:00,
2013-07-16 03:52:00,52.0,49.0,-100.00,SW,233,0.0,-999.0,88,0.00,,,-99.99,,2013-07-16 10:52:00,
2013-07-16 04:00:00,52.0,49.0,-100.00,South,191,1.0,-999.0,89,0.00,,,-99.99,,2013-07-16 11:00:00,
2013-07-16 04:22:00,52.0,49.0,-100.00,South,191,1.0,-999.0,89,0.00,,,-99.99,,2013-07-16 11:22:00,
2013-07-16 04:32:00,52.0,49.0,-100.00,South,191,1.0,-999.0,89,0.00,,,-99.99,,2013-07-16 11:32:00,
2013-07-16 04:53:00,52.0,49.0,-100.00,South,191,1.0,-999.0,89,0.00,,,-99.99,,2013-07-16 11:53:00,
2013-07-16 05:22:00,51.0,48.0,-100.00,SSW,199,5.0,-999.0,87,0.00,,,-99.99,,2013-07-16 12:22:00,
2013-07-16 05:32:00,51.0,48.0,-100.00,SSW,199,5.0,-999.0,87,0.00,,,-99.99,,2013-07-16 12:32:00,
2013-07-16 05:53:00,51.0,48.0,-100.00,SSW,199,5.0,-999.0,87,0.00,,,-99.99,,2013-07-16 12:53:00,
2013-07-16 06:00:00,51.0,47.0,-100.00,SSE,163,6.0,-999.0,87,0.00,,,-99.99,,2013-07-16 13:00:00,
2013-07-16 06:32:00,51.0,47.0,-100.00,SSE,163,6.0,-999.0,87,0.00,,,-99.99,,2013-07-16 13:32:00,
2013-07-16 06:42:00,51.0,47.0,-100.00,SSE,163,6.0,-999.0,87,0.00,,,-99.99,,2013-07-16 13:42:00,
2013-07-16 06:52:00,51.0,47.0,-100.00,SSE,163,6.0,-999.0,87,0.00,,,-99.99,,2013-07-16 13:52:00,
2013-07-16 07:00:00,51.0,48.0,-100.00,SSE,147,4.0,-999.0,89,0.00,,,-99.99,,2013-07-16 14:00:00,
2013-07-16 07:22:00,51.0,48.0,-100.00,SSE,147,4.0,-999.0,89,0.00,,,-99.99,,2013-07-16 14:22:00,
2013-07-16 07:32:00,51.0,48.0,-100.00,SSE,147,4.0,-999.0,89,0.00,,,-99.99,,2013-07-16 14:32:00,
2013-07-16 07:52:00,51.0,48.0,-100.00,SSE,147,4.0,-999.0,89,0.00,,,-99.99,,2013-07-16 14:52:00,
2013-07-16 08:00:00,52.0,48.0,-100.00,SSW,192,3.0,-999.0,86,0.00,,,-99.99,,2013-07-16 15:00:00,
2013-07-16 08:32:00,52.0,48.0,-100.00,SSW,192,3.0,-999.0,86,0.00,,,-99.99,,2013-07-16 15:32:00,
2013-07-16 08:53:00,52.0,48.0,-100.00,SSW,192,3.0,-999.0,86,0.00,,,-99.99,,2013-07-16 15:53:00,
2013-07-16 09:00:00,53.0,48.0,-100.00,SSW,206,3.0,-999.0,81,0.00,,,-99.99,,2013-07-16 16:00:00,
2013-07-16 09:32:00,53.0,48.0,-100.00,SSW,206,3.0,-999.0,81,0.00,,,-99.99,,2013-07-16 16:32:00,
2013-07-16 09:52:00,53.0,48.0,-100.00,SSW,206,3.0,-999.0,81,0.00,,,-99.99,,2013-07-16 16:52:00,
2013-07-16 10:00:00,54.0,48.0,-100.00,SSW,192,6.0,-999.0,79,0.00,,,-99.99,,2013-07-16 17:00:00,
2013-07-16 10:33:00,54.0,48.0,-100.00,SSW,192,6.0,-999.0,79,0.00,,,-99.99,,2013-07-16 17:33:00,
2013-07-16 10:53:00,54.0,48.0,-100.00,SSW,192,6.0,-999.0,79,0.00,,,-99.99,,2013-07-16 17:53:00,
2013-07-16 11:00:00,56.0,49.0,-100.00,South,177,9.0,-999.0,75,0.00,,,-99.99,,2013-07-16 18:00:00,
2013-07-16 11:33:00,56.0,49.0,-100.00,South,177,9.0,-999.0,75,0.00,,,-99.99,,2013-07-16 18:33:00,
2013-07-16 11:52:00,56.0,49.0,-100.00,South,177,9.0,-999.0,75,0.00,,,-99.99,,2013-07-16 18:52:00,
2013-07-16 12:00:00,57.0,49.0,-100.00,South,188,3.0,-999.0,73,0.00,,,-99.99,,2013-07-16 19:00:00,
2013-07-16 12:32:00,57.0,49.0,-100.00,South,188,3.0,-999.0,73,0.00,,,-99.99,,2013-07-16 19:32:00,
2013-07-16 12:52:00,57.0,49.0,-100.00,South,188,3.0,-999.0,73,0.00,,,-99.99,,2013-07-16 19:52:00,
2013-07-16 13:00:00,62.0,50.0,-100.00,SSW,202,9.0,-999.0,64,0.00,,,-99.99,,2013-07-16 20:00:00,
2013-07-16 13:32:00,62.0,50.0,-100.00,SSW,202,9.0,-999.0,64,0.00,,,-99.99,,2013-07-16 20:32:00,
2013-07-16 13:52:00,62.0,50.0,-100.00,SSW,202,9.0,-999.0,64,0.00,,,-99.99,,2013-07-16 20:52:00,
2013-07-16 14:00:00,68.0,51.0,-100.00,SW,234,3.0,-999.0,53,0.00,,,-99.99,,2013-07-16 21:00:00,
2013-07-16 14:43:00,68.0,51.0,-100.00,SW,234,3.0,-999.0,53,0.00,,,-99.99,,2013-07-16 21:43:00,
2013-07-16 15:00:00,68.0,52.0,-100.00,SSE,164,4.0,-999.0,55,0.00,,,-99.99,,2013-07-16 22:00:00,
2013-07-16 15:33:00,68.0,52.0,-100.00,SSE,164,4.0,-999.0,55,0.00,,,-99.99,,2013-07-16 22:33:00,
2013-07-16 15:43:00,68.0,52.0,-100.00,SSE,164,4.0,-999.0,55,0.00,,,-99.99,,2013-07-16 22:43:00,
2013-07-16 15:52:00,68.0,52.0,-100.00,SSE,164,4.0,-999.0,55,0.00,,,-99.99,,2013-07-16 22:52:00,
2013-07-16 16:00:00,69.0,51.0,-100.00,South,185,6.0,-999.0,52,0.00,,,-99.99,,2013-07-16 23:00:00,
2013-07-16 16:32:00,69.0,51.0,-100.00,South,185,6.0,-999.0,52,0.00,,,-99.99,,2013-07-16 23:32:00,
2013-07-16 16:43:00,69.0,51.0,-100.00,South,185,6.0,-999.0,52,0.00,,,-99.99,,2013-07-16 23:43:00,
2013-07-16 16:52:00,69.0,51.0,-100.00,South,185,6.0,-999.0,52,0.00,,,-99.99,,2013-07-16 23:52:00,
2013-07-16 17:00:00,68.0,52.0,-100.00,SSW,192,9.0,-999.0,54,0.00,,,-99.99,,2013-07-17 00:00:00,
2013-07-16 17:33:00,68.0,52.0,-100.00,SSW,192,9.0,-999.0,54,0.00,,,-99.99,,2013-07-17 00:33:00,
2013-07-16 17:42:00,68.0,52.0,-100.00,SSW,192,9.0,-999.0,54,0.00,,,-99.99,,2013-07-17 00:42:00,
2013-07-16 17:52:00,68.0,52.0,-100.00,SSW,192,9.0,-999.0,54,0.00,,,-99.99,,2013-07-17 00:52:00,
2013-07-16 18:00:00,65.0,51.0,-100.00,NNW,348,0.0,-999.0,60,0.00,,,-99.99,,2013-07-17 01:00:00,
2013-07-16 18:32:00,65.0,51.0,-100.00,NNW,348,0.0,-999.0,60,0.00,,,-99.99,,2013-07-17 01:32:00,
2013-07-16 18:43:00,65.0,51.0,-100.00,NNW,348,0.0,-999.0,60,0.00,,,-99.99,,2013-07-17 01:43:00,
2013-07-16 18:53:00,65.0,51.0,-100.00,NNW,348,0.0,-999.0,60,0.00,,,-99.99,,2013-07-17 01:53:00,
2013-07-16 19:00:00,62.0,51.0,-100.00,NW,314,2.0,-999.0,68,0.00,,,-99.99,,2013-07-17 02:00:00,
2013-07-16 19:32:00,62.0,51.0,-100.00,NW,314,2.0,-999.0,68,0.00,,,-99.99,,2013-07-17 02:32:00,
2013-07-16 19:43:00,62.0,51.0,-100.00,NW,314,2.0,-999.0,68,0.00,,,-99.99,,2013-07-17 02:43:00,
2013-07-16 19:53:00,62.0,51.0,-100.00,NW,314,2.0,-999.0,68,0.00,,,-99.99,,2013-07-17 02:53:00,
2013-07-16 20:00:00,59.0,51.0,-100.00,NW,309,2.0,-999.0,75,0.00,,,-99.99,,2013-07-17 03:00:00,
2013-07-16 20:32:00,59.0,51.0,-100.00,NW,309,2.0,-999.0,75,0.00,,,-99.99,,2013-07-17 03:32:00,
2013-07-16 20:53:00,59.0,51.0,-100.00,NW,309,2.0,-999.0,75,0.00,,,-99.99,,2013-07-17 03:53:00,
2013-07-16 21:00:00,57.0,51.0,-100.00,NNW,337,2.0,-999.0,79,0.00,,,-99.99,,2013-07-17 04:00:00,
2013-07-16 21:22:00,57.0,51.0,-100.00,NNW,337,2.0,-999.0,79,0.00,,,-99.99,,2013-07-17 04:22:00,
2013-07-16 21:32:00,57.0,51.0,-100.00,NNW,337,2.0,-999.0,79,0.00,,,-99.99,,2013-07-17 04:32:00,
2013-07-16 21:53:00,57.0,51.0,-100.00,NNW,337,2.0,-999.0,79,0.00,,,-99.99,,2013-07-17 04:53:00,
2013-07-16 22:00:00,57.0,51.0,-100.00,NNW,332,2.0,-999.0,80,0.00,,,-99.99,,2013-07-17 05:00:00,
2013-07-16 22:32:00,57.0,51.0,-100.00,NNW,332,2.0,-999.0,80,0.00,,,-99.99,,2013-07-17 05:32:00,
2013-07-16 22:43:00,57.0,51.0,-100.00,NNW,332,2.0,-999.0,80,0.00,,,-99.99,,2013-07-17 05:43:00,
2013-07-16 22:52:00,57.0,51.0,-100.00,NNW,332,2.0,-999.0,80,0.00,,,-99.99,,2013-07-17 05:52:00,
2013-07-16 23:00:00,57.0,51.0,-100.00,SW,227,1.0,-999.0,81,0.00,,,-99.99,,2013-07-17 06:00:00,
2013-07-16 23:33:00,57.0,51.0,-100.00,SW,227,1.0,-999.0,81,0.00,,,-99.99,,2013-07-17 06:33:00,
2013-07-16 23:43:00,57.0,51.0,-100.00,SW,227,1.0,-999.0,81,0.00,,,-99.99,,2013-07-17 06:43:00,
2013-07-16 23:52:00,57.0,51.0,-100.00,SW,227,1.0,-999.0,81,0.00,,,-99.99,,2013-07-17 06:52:00,